createdAt,value
2022-10-19T00:01:44.375Z,19.92
2022-10-19T00:04:11.640Z,22.42
2022-10-19T00:06:39.392Z,24.25
2022-10-19T00:09:08.431Z,19.08
2022-10-19T00:11:37.666Z,21.55
2022-10-19T00:14:05.858Z,19.00
2022-10-19T00:16:36.074Z,20.15
2022-10-19T00:19:06.361Z,20.20
2022-10-19T00:21:33.934Z,21.38
2022-10-19T00:24:01.178Z,18.33
2022-10-19T00:26:28.501Z,17.13
2022-10-19T00:28:56.641Z,23.52
2022-10-19T00:31:24.532Z,21.98
2022-10-19T00:33:53.834Z,18.02
2022-10-19T00:36:23.993Z,16.02
2022-10-19T00:38:51.637Z,21.58
2022-10-19T00:41:19.969Z,21.42
2022-10-19T00:43:53.120Z,18.48
2022-10-19T00:46:20.836Z,19.52
2022-10-19T00:51:17.954Z,16.48
2022-10-19T00:53:45.271Z,13.38
2022-10-19T00:56:14.869Z,14.13
2022-10-19T00:58:43.716Z,28.50
2022-10-19T01:01:16.072Z,24.27
2022-10-19T01:03:43.699Z,26.40
2022-10-19T01:06:12.134Z,15.30
2022-10-19T01:08:40.886Z,19.58
2022-10-19T01:11:19.737Z,22.20
2022-10-19T01:13:55.972Z,18.42
2022-10-19T01:16:32.799Z,35.80
2022-10-19T01:19:12.903Z,15.38
2022-10-19T01:21:45.097Z,17.90
2022-10-19T01:24:40.800Z,18.08
2022-10-19T01:27:32.990Z,23.40
2022-10-19T01:30:06.850Z,27.30
2022-10-19T01:32:45.451Z,101.90
2022-10-19T01:35:20.174Z,49.65
2022-10-19T01:37:50.429Z,26.70
2022-10-19T01:40:25.155Z,12.80
2022-10-19T01:43:04.401Z,14.32
2022-10-19T01:45:39.569Z,10.40
2022-10-19T01:50:39.386Z,11.23
2022-10-19T01:53:09.182Z,10.70
2022-10-19T01:55:40.827Z,16.08
2022-10-19T01:58:10.817Z,13.48
2022-10-19T02:00:42.682Z,15.00
2022-10-19T02:03:11.818Z,14.45
2022-10-19T02:05:40.663Z,15.63
2022-10-19T02:08:12.581Z,11.50
2022-10-19T02:10:42.340Z,16.75
2022-10-19T02:13:12.406Z,17.73
2022-10-19T02:15:44.694Z,21.98
2022-10-19T02:18:14.820Z,19.55
2022-10-19T02:20:42.035Z,18.75
2022-10-19T02:23:09.838Z,17.25
2022-10-19T02:25:37.414Z,21.75
2022-10-19T02:28:05.662Z,20.55
2022-10-19T02:30:32.918Z,16.95
2022-10-19T02:33:01.441Z,18.60
2022-10-19T02:35:28.856Z,21.05
2022-10-19T02:38:00.245Z,21.42
2022-10-19T02:40:29.809Z,25.30
2022-10-19T02:43:02.001Z,29.23
2022-10-19T02:45:32.381Z,21.88
2022-10-19T02:48:04.929Z,28.58
2022-10-19T02:50:32.285Z,18.52
2022-10-19T02:53:00.200Z,22.15
2022-10-19T02:55:29.163Z,30.33
2022-10-19T02:57:57.377Z,25.60
2022-10-19T03:00:24.613Z,59.00
2022-10-19T03:02:51.898Z,45.72
2022-10-19T03:05:20.422Z,67.78
2022-10-19T03:07:47.616Z,66.30
2022-10-19T03:10:15.137Z,49.47
2022-10-19T03:12:42.336Z,54.85
2022-10-19T03:15:14.843Z,42.92
2022-10-19T03:17:42.200Z,22.60
2022-10-19T03:20:10.474Z,22.38
2022-10-19T03:22:39.142Z,31.20
2022-10-19T03:25:07.206Z,25.63
2022-10-19T03:27:34.847Z,16.70
2022-10-19T03:30:02.331Z,14.60
2022-10-19T03:32:29.610Z,21.15
2022-10-19T03:34:56.675Z,25.50
2022-10-19T03:37:23.950Z,15.05
2022-10-19T03:39:52.585Z,17.88
2022-10-19T03:42:19.816Z,35.88
2022-10-19T03:44:47.027Z,36.35
2022-10-19T03:47:14.388Z,44.60
2022-10-19T03:49:43.525Z,44.38
2022-10-19T03:52:10.778Z,41.33
2022-10-19T03:54:38.042Z,39.83
2022-10-19T03:57:06.709Z,24.88
2022-10-19T03:59:33.854Z,19.77
2022-10-19T04:02:00.961Z,21.35
2022-10-19T04:04:28.277Z,20.00
2022-10-19T04:06:55.402Z,17.80
2022-10-19T04:09:23.495Z,15.90
2022-10-19T04:11:50.854Z,10.68
2022-10-19T04:14:31.772Z,10.70
2022-10-19T04:17:01.467Z,16.50
2022-10-19T04:19:28.593Z,14.48
2022-10-19T04:21:55.877Z,13.38
2022-10-19T04:24:23.050Z,10.88
2022-10-19T04:26:51.771Z,10.40
2022-10-19T04:29:23.744Z,12.40
2022-10-19T04:31:53.765Z,10.15
2022-10-19T04:34:20.999Z,14.38
2022-10-19T04:36:48.271Z,9.93
2022-10-19T04:39:15.713Z,11.73
2022-10-19T04:41:42.993Z,21.90
2022-10-19T04:44:10.641Z,30.83
2022-10-19T04:46:39.281Z,30.02
2022-10-19T04:49:07.010Z,68.97
2022-10-19T04:51:34.629Z,13.85
2022-10-19T04:54:02.677Z,18.52
2022-10-19T04:56:32.334Z,18.77
2022-10-19T04:59:01.230Z,20.60
2022-10-19T05:01:30.743Z,17.33
2022-10-19T05:04:01.509Z,16.00
2022-10-19T05:06:29.208Z,21.08
2022-10-19T05:08:56.860Z,16.88
2022-10-19T05:11:24.596Z,22.35
2022-10-19T05:13:51.828Z,40.85
2022-10-19T05:16:21.088Z,36.00
2022-10-19T05:18:49.188Z,46.78
2022-10-19T05:21:19.314Z,56.28
2022-10-19T05:23:46.509Z,55.58
2022-10-19T05:26:17.474Z,53.85
2022-10-19T05:28:48.557Z,64.97
2022-10-19T05:31:18.799Z,65.85
2022-10-19T05:33:46.509Z,48.95
2022-10-19T05:36:18.168Z,34.25
2022-10-19T05:38:46.291Z,37.83
2022-10-19T05:41:14.278Z,44.65
2022-10-19T05:43:42.289Z,43.10
2022-10-19T05:46:11.452Z,36.97
2022-10-19T05:48:39.402Z,42.92
2022-10-19T05:51:08.986Z,34.65
2022-10-19T05:56:07.350Z,94.88
2022-10-19T05:58:35.669Z,98.05
2022-10-19T06:01:03.086Z,102.57
2022-10-19T06:03:30.846Z,28.25
2022-10-19T06:05:58.224Z,18.95
2022-10-19T06:08:25.524Z,17.83
2022-10-19T06:11:05.473Z,14.10
2022-10-19T06:13:32.948Z,19.30
2022-10-19T06:16:00.223Z,14.13
2022-10-19T06:18:27.682Z,47.22
2022-10-19T06:20:54.838Z,18.13
2022-10-19T06:23:22.031Z,22.30
2022-10-19T06:25:49.417Z,22.40
2022-10-19T06:28:18.058Z,17.33
2022-10-19T06:30:45.326Z,16.52
2022-10-19T06:33:13.132Z,16.58
2022-10-19T06:35:42.571Z,16.25
2022-10-19T06:38:10.201Z,15.25
2022-10-19T06:40:37.347Z,16.80
2022-10-19T06:43:04.662Z,26.10
2022-10-19T06:45:35.908Z,24.45
2022-10-19T15:03:47.759Z,23.77
2022-10-19T15:06:19.598Z,85.90
2022-10-19T15:08:51.397Z,60.63
2022-10-19T15:11:26.853Z,39.55
2022-10-19T15:14:02.314Z,25.17
2022-10-19T15:16:42.241Z,22.05
2022-10-19T15:19:21.741Z,22.95
2022-10-19T15:22:06.715Z,13.57
2022-10-19T15:24:34.205Z,26.88
2022-10-19T15:27:09.869Z,36.05
2022-10-19T15:29:37.900Z,27.15
2022-10-19T15:32:16.134Z,30.30
2022-10-19T15:34:46.206Z,36.97
2022-10-19T15:37:18.982Z,36.17
2022-10-19T15:39:47.045Z,7.40
2022-10-19T15:42:35.230Z,8.93
2022-10-19T15:45:03.610Z,6.57
2022-10-19T15:47:31.351Z,7.28
2022-10-19T15:50:02.319Z,6.53
2022-10-19T15:52:31.931Z,7.75
2022-10-19T15:55:00.354Z,8.68
2022-10-19T15:57:30.336Z,10.13
2022-10-19T15:59:59.635Z,12.68
2022-10-19T16:02:27.217Z,16.70
2022-10-19T16:04:55.160Z,50.90
2022-10-19T16:07:28.169Z,58.33
2022-10-19T16:09:55.586Z,60.35
2022-10-19T16:12:23.623Z,59.80
2022-10-19T16:14:50.955Z,39.38
2022-10-19T16:17:18.255Z,40.67
2022-10-19T16:19:46.094Z,30.58
2022-10-19T16:22:14.041Z,37.92
2022-10-19T16:24:42.724Z,47.83
2022-10-19T16:27:10.003Z,21.20
2022-10-19T16:29:37.324Z,13.55
2022-10-19T16:32:04.706Z,13.13
2022-10-19T16:34:31.987Z,12.18
2022-10-19T16:37:02.597Z,17.77
2022-10-19T16:39:33.151Z,23.48
2022-10-19T16:42:01.926Z,28.50
2022-10-19T16:44:29.093Z,42.22
2022-10-19T16:46:56.614Z,24.48
2022-10-19T16:49:23.844Z,17.38
2022-10-19T16:51:54.677Z,27.35
2022-10-19T16:54:26.820Z,17.92
2022-10-19T16:56:55.710Z,21.80
2022-10-19T16:59:24.557Z,26.67
2022-10-19T17:01:51.907Z,18.60
2022-10-19T17:04:19.297Z,13.52
2022-10-19T17:06:46.776Z,15.27
2022-10-19T17:09:37.071Z,7.68
2022-10-19T17:12:01.324Z,6.90
2022-10-19T17:14:29.993Z,23.23
2022-10-19T17:16:57.208Z,7.38
2022-10-19T17:19:24.454Z,8.88
2022-10-19T17:21:55.046Z,8.07
2022-10-19T17:24:23.011Z,11.25
2022-10-19T17:26:51.913Z,9.60
2022-10-19T17:29:20.002Z,7.63
2022-10-19T17:31:49.410Z,7.03
2022-10-19T17:34:17.197Z,6.38
2022-10-19T17:36:45.998Z,12.18
2022-10-19T17:39:17.553Z,8.40
2022-10-19T17:41:45.382Z,12.27
2022-10-19T17:44:13.020Z,10.05
2022-10-19T17:46:40.390Z,13.35
2022-10-19T17:49:09.964Z,16.25
2022-10-19T17:51:38.079Z,11.73
2022-10-19T17:54:07.763Z,19.10
2022-10-19T17:56:36.113Z,22.42
2022-10-19T17:59:04.509Z,16.15
2022-10-19T18:01:31.837Z,17.30
2022-10-19T18:03:59.214Z,13.45
2022-10-19T18:06:31.500Z,11.02
2022-10-19T18:09:00.145Z,13.02
2022-10-19T18:11:29.185Z,13.32
2022-10-19T18:13:59.107Z,16.60
2022-10-19T18:16:28.124Z,16.17
2022-10-19T18:18:56.907Z,20.17
2022-10-19T18:21:26.360Z,13.88
2022-10-19T18:23:57.017Z,16.73
2022-10-19T18:26:26.151Z,15.38
2022-10-19T18:28:55.122Z,35.75
2022-10-19T18:31:24.352Z,15.63
2022-10-19T18:33:56.811Z,15.60
2022-10-19T18:36:24.121Z,14.45
2022-10-19T18:38:52.186Z,20.83
2022-10-19T18:41:21.366Z,19.02
2022-10-19T18:43:51.047Z,18.02
2022-10-19T18:46:19.573Z,19.13
2022-10-19T18:48:47.127Z,24.48
2022-10-19T18:51:17.592Z,28.50
2022-10-19T18:53:45.683Z,25.38
2022-10-19T18:56:14.766Z,27.98
2022-10-19T18:58:43.854Z,23.30
2022-10-19T19:01:13.563Z,27.05
2022-10-19T19:03:42.904Z,25.73
2022-10-19T19:06:12.248Z,24.88
2022-10-19T19:08:39.718Z,26.85
2022-10-19T19:11:11.597Z,22.40
2022-10-19T19:13:39.593Z,21.75
2022-10-19T19:16:08.917Z,14.93
2022-10-19T19:18:36.445Z,20.63
2022-10-19T19:21:05.451Z,29.42
2022-10-19T19:23:33.309Z,21.20
2022-10-19T19:26:00.398Z,15.52
2022-10-19T19:28:27.691Z,20.77
2022-10-19T19:30:54.913Z,16.40
2022-10-19T19:33:23.638Z,19.65
2022-10-19T19:35:52.283Z,17.95
2022-10-19T19:38:19.538Z,19.15
2022-10-19T19:40:46.792Z,17.67
2022-10-19T19:43:15.438Z,17.58
2022-10-19T19:45:43.580Z,19.80
2022-10-19T19:48:11.251Z,19.17
2022-10-19T19:50:39.919Z,19.17
2022-10-19T19:53:07.229Z,19.65
2022-10-19T19:55:38.168Z,19.48
2022-10-19T19:58:06.454Z,20.88
2022-10-19T20:00:33.630Z,18.02
2022-10-19T20:03:00.972Z,20.58
2022-10-19T20:05:28.559Z,16.20
2022-10-19T20:07:57.197Z,21.08
2022-10-19T20:10:24.442Z,21.00
2022-10-19T20:12:51.744Z,16.13
2022-10-19T20:15:19.018Z,22.63
2022-10-19T20:17:46.611Z,18.27
2022-10-19T20:20:15.572Z,18.35
2022-10-19T20:22:46.328Z,20.35
2022-10-19T20:25:15.447Z,19.27
2022-10-19T20:27:43.535Z,20.48
2022-10-19T20:30:11.536Z,20.63
2022-10-19T20:32:38.965Z,24.00
2022-10-19T20:35:07.460Z,15.20
2022-10-19T20:37:34.744Z,14.73
2022-10-19T20:40:08.360Z,15.63
2022-10-19T20:42:37.873Z,15.07
2022-10-19T20:45:06.597Z,14.38
2022-10-19T20:47:33.837Z,14.30
2022-10-19T20:50:01.206Z,15.30
2022-10-19T20:52:28.512Z,14.27
2022-10-19T20:54:55.708Z,13.60
2022-10-19T20:57:22.950Z,14.80
2022-10-19T20:59:51.624Z,15.60
2022-10-19T21:02:18.862Z,15.10
2022-10-19T21:04:45.985Z,14.77
2022-10-19T21:07:13.154Z,14.38
2022-10-19T21:09:40.351Z,12.02
2022-10-19T21:12:07.625Z,10.30
2022-10-19T21:14:34.888Z,15.63
2022-10-19T21:17:03.410Z,8.95
2022-10-19T21:19:31.197Z,9.68
2022-10-19T21:22:03.392Z,15.20
2022-10-19T21:24:32.775Z,26.88
2022-10-19T21:27:01.511Z,44.08
2022-10-19T21:29:28.826Z,18.33
2022-10-19T21:31:56.411Z,10.45
2022-10-19T21:34:27.454Z,12.48
2022-10-19T21:36:55.497Z,12.05
2022-10-19T21:39:23.053Z,7.85
2022-10-19T21:41:50.904Z,9.40
2022-10-19T21:44:18.983Z,9.32
2022-10-19T21:46:47.919Z,14.73
2022-10-19T21:49:15.776Z,9.40
2022-10-19T21:51:46.647Z,8.85
2022-10-19T21:54:15.862Z,9.68
2022-10-19T21:56:43.407Z,10.75
2022-10-19T21:59:12.157Z,6.60
2022-10-19T22:01:41.185Z,9.80
2022-10-19T22:04:12.214Z,8.88
2022-10-19T22:06:39.832Z,12.00
2022-10-19T22:09:10.011Z,9.02
2022-10-19T22:11:37.321Z,10.35
2022-10-19T22:14:04.898Z,8.35
2022-10-19T22:16:33.664Z,8.23
2022-10-19T22:19:01.126Z,8.50
2022-10-19T22:21:30.286Z,8.40
2022-10-19T22:23:58.875Z,8.25
2022-10-19T22:26:29.224Z,10.30
2022-10-19T22:28:57.439Z,7.25
2022-10-19T22:31:26.207Z,6.70
2022-10-19T22:33:53.562Z,9.40
2022-10-19T22:36:20.858Z,6.70
2022-10-19T22:38:48.382Z,9.30
2022-10-19T22:41:15.654Z,7.75
2022-10-19T22:43:44.205Z,9.07
2022-10-19T22:46:11.511Z,7.35
2022-10-19T22:48:38.712Z,6.80
2022-10-19T22:51:06.042Z,8.35
2022-10-19T22:53:33.202Z,8.63
2022-10-19T22:56:00.502Z,8.05
2022-10-19T22:58:27.798Z,10.80
2022-10-19T23:01:02.149Z,10.30
2022-10-19T23:03:29.410Z,12.10
2022-10-19T23:05:56.637Z,15.48
2022-10-19T23:08:23.897Z,19.58
2022-10-19T23:10:51.279Z,8.35
2022-10-19T23:13:18.445Z,11.52
2022-10-19T23:15:45.918Z,10.70
2022-10-19T23:18:14.585Z,8.85
2022-10-19T23:20:41.897Z,9.77
2022-10-19T23:23:09.376Z,12.10
2022-10-19T23:25:36.848Z,13.60
2022-10-19T23:28:04.266Z,9.57
2022-10-19T23:30:31.494Z,13.80
2022-10-19T23:32:58.586Z,8.88
2022-10-19T23:35:27.204Z,14.30
2022-10-19T23:37:54.397Z,9.77
2022-10-19T23:40:21.614Z,10.25
2022-10-19T23:42:48.936Z,14.63
2022-10-19T23:45:16.120Z,13.68
2022-10-19T23:47:43.314Z,11.63
2022-10-19T23:50:10.550Z,10.27
2022-10-19T23:52:39.129Z,13.93
2022-10-19T23:55:07.816Z,10.35
2022-10-19T23:57:35.397Z,10.32
